Time;durP1;ratioP1;P1;durP2;ratioP2;P2;SDS_P1;SDS_P2;PMS_P1;PMS_P2;Temp;Humidity;BMP_temperature;BMP_pressure;BME280_temperature;BME280_humidity;BME280_pressure;Samples;Min_cycle;Max_cycle;Signal;HPM_P1;HPM_P2
2022/08/27 00:02:16;;;;;;;26.02;10.32;;;17.30;99.90;;;;;;4819960;29;20723;-82
2022/08/27 00:05:02;;;;;;;15.95;6.97;;;17.30;99.90;;;;;;4799248;29;20050;-84
2022/08/27 00:07:34;;;;;;;8.90;5.80;;;17.40;99.90;;;;;;4838668;29;20054;-83
2022/08/27 00:10:06;;;;;;;8.63;6.78;;;17.30;99.90;;;;;;4824194;29;20050;-83
2022/08/27 00:12:35;;;;;;;16.40;6.97;;;17.40;99.90;;;;;;4860910;29;20052;-83
2022/08/27 00:15:05;;;;;;;8.68;5.88;;;17.40;99.90;;;;;;4860026;29;20440;-82
2022/08/27 00:17:34;;;;;;;10.88;6.10;;;17.50;99.90;;;;;;4869453;29;20056;-80
2022/08/27 00:20:05;;;;;;;8.43;5.72;;;17.40;99.90;;;;;;4887818;29;20639;-84
2022/08/27 00:22:35;;;;;;;18.52;9.10;;;17.40;99.90;;;;;;4874362;29;20049;-84
2022/08/27 00:25:08;;;;;;;9.77;6.18;;;17.30;99.90;;;;;;4836624;29;20057;-84
2022/08/27 00:27:39;;;;;;;9.93;7.25;;;17.30;99.90;;;;;;4838951;29;20054;-84
2022/08/27 00:30:11;;;;;;;12.87;7.07;;;17.20;99.90;;;;;;4807058;29;20069;-84
2022/08/27 00:32:46;;;;;;;8.80;7.10;;;17.20;99.90;;;;;;4808663;29;20061;-84
2022/08/27 00:35:18;;;;;;;9.85;8.00;;;17.20;99.90;;;;;;4814094;29;20054;-84
2022/08/27 00:37:59;;;;;;;17.08;8.10;;;17.20;99.90;;;;;;4805423;29;20412;-84
2022/08/27 00:40:29;;;;;;;15.40;8.55;;;17.20;99.90;;;;;;4804693;29;20421;-84
2022/08/27 00:43:09;;;;;;;10.80;8.02;;;17.20;99.90;;;;;;4802882;29;20561;-85
2022/08/27 00:46:18;;;;;;;10.45;7.55;;;17.10;99.90;;;;;;4788855;29;20058;-85
2022/08/27 00:49:31;;;;;;;9.23;5.13;;;17.10;99.90;;;;;;4772588;29;20054;-84
2022/08/27 00:52:11;;;;;;;10.60;6.40;;;17.10;99.90;;;;;;4774467;29;20460;-85
2022/08/27 00:54:44;;;;;;;8.23;6.93;;;17.10;99.90;;;;;;4773343;29;20412;-85
2022/08/27 00:57:22;;;;;;;8.27;6.63;;;17.00;99.90;;;;;;4766821;29;20058;-85
2022/08/27 01:00:06;;;;;;;8.48;6.47;;;17.00;99.90;;;;;;4784126;29;20070;-85
2022/08/27 01:02:54;;;;;;;8.57;7.30;;;17.00;99.90;;;;;;4782952;29;20063;-85
2022/08/27 01:06:25;;;;;;;8.80;5.93;;;17.10;99.90;;;;;;4854275;29;20057;-85
2022/08/27 01:09:22;;;;;;;11.70;8.70;;;17.10;99.90;;;;;;4804979;29;20049;-85
2022/08/27 01:12:27;;;;;;;8.73;6.55;;;17.00;99.90;;;;;;4837716;29;20060;-85
2022/08/27 01:15:34;;;;;;;10.88;7.72;;;17.10;99.90;;;;;;4820398;29;20528;-84
2022/08/27 01:18:04;;;;;;;11.40;8.25;;;17.00;99.90;;;;;;4760549;29;20049;-84
2022/08/27 01:21:01;;;;;;;13.32;10.50;;;16.90;99.90;;;;;;4829647;29;20073;-85
2022/08/27 01:23:53;;;;;;;18.13;7.80;;;16.80;99.90;;;;;;4821769;29;20050;-86
2022/08/27 01:26:45;;;;;;;9.75;8.48;;;16.80;99.90;;;;;;4842832;29;20059;-84
2022/08/27 01:29:19;;;;;;;11.73;8.00;;;16.80;99.90;;;;;;4837756;29;20400;-85
2022/08/27 01:31:48;;;;;;;11.13;7.63;;;16.80;99.90;;;;;;4844454;29;20041;-80
2022/08/27 01:34:37;;;;;;;11.35;9.23;;;16.80;99.90;;;;;;4836035;29;20053;-85
2022/08/27 01:37:14;;;;;;;10.77;8.05;;;16.80;99.90;;;;;;4842091;29;20088;-85
2022/08/27 01:39:53;;;;;;;13.45;7.38;;;16.80;99.90;;;;;;4840683;29;20060;-85
2022/08/27 01:42:33;;;;;;;9.07;8.18;;;16.80;99.90;;;;;;4801770;29;20091;-85
2022/08/27 01:45:37;;;;;;;10.32;6.82;;;16.70;99.90;;;;;;4801940;29;20054;-84
2022/08/27 01:48:06;;;;;;;9.98;7.20;;;16.70;99.90;;;;;;4788035;29;20058;-84
2022/08/27 01:50:39;;;;;;;8.80;6.88;;;16.60;99.90;;;;;;4823575;29;20049;-84
2022/08/27 01:53:13;;;;;;;8.70;7.45;;;16.60;99.90;;;;;;4817462;29;20062;-84
2022/08/27 01:55:43;;;;;;;10.43;7.68;;;16.60;99.90;;;;;;4798282;29;20057;-84
2022/08/27 01:58:16;;;;;;;11.40;6.60;;;16.50;99.90;;;;;;4803506;29;20579;-84
2022/08/27 02:00:52;;;;;;;7.18;6.55;;;16.50;99.90;;;;;;4824219;29;20064;-84
2022/08/27 02:03:27;;;;;;;7.07;6.32;;;16.50;99.90;;;;;;4808836;29;20050;-84
2022/08/27 02:05:56;;;;;;;10.25;5.88;;;16.50;99.90;;;;;;4808959;29;20049;-84
2022/08/27 02:08:24;;;;;;;6.50;5.88;;;16.40;99.90;;;;;;4846989;29;20048;-83
2022/08/27 02:10:51;;;;;;;9.95;6.22;;;16.40;99.90;;;;;;4861417;29;20525;-85
2022/08/27 02:13:27;;;;;;;8.07;5.43;;;16.40;99.90;;;;;;4846398;29;20069;-83
2022/08/27 02:15:54;;;;;;;6.85;5.82;;;16.40;99.90;;;;;;4810613;29;20062;-83
2022/08/27 02:18:23;;;;;;;14.40;8.07;;;16.40;99.90;;;;;;4840632;29;20503;-84
2022/08/27 02:20:51;;;;;;;7.95;5.70;;;16.40;99.90;;;;;;4828481;29;20061;-84
2022/08/27 02:23:19;;;;;;;8.57;5.18;;;16.30;99.90;;;;;;4827950;29;20045;-85
2022/08/27 02:25:47;;;;;;;12.05;6.07;;;16.30;99.90;;;;;;4843800;29;20049;-85
2022/08/27 02:28:15;;;;;;;6.60;5.63;;;16.30;99.90;;;;;;4843553;29;20076;-84
2022/08/27 02:30:43;;;;;;;7.50;5.97;;;16.20;99.90;;;;;;4813311;29;20041;-85
2022/08/27 02:33:15;;;;;;;6.70;5.15;;;16.20;99.90;;;;;;4828272;29;20058;-84
2022/08/27 02:35:44;;;;;;;5.70;5.20;;;16.20;99.90;;;;;;4843684;29;20061;-85
2022/08/27 02:38:12;;;;;;;10.45;6.80;;;16.20;99.90;;;;;;4826694;29;20894;-85
2022/08/27 02:40:42;;;;;;;9.32;6.57;;;16.20;99.90;;;;;;4847414;29;20056;-85
2022/08/27 02:43:10;;;;;;;8.13;7.05;;;16.30;99.90;;;;;;4849513;29;20045;-85
2022/08/27 02:45:43;;;;;;;7.70;6.68;;;16.30;99.90;;;;;;4850092;29;20051;-85
2022/08/27 02:48:11;;;;;;;9.52;6.20;;;16.30;99.90;;;;;;4849576;29;20055;-85
2022/08/27 02:50:39;;;;;;;5.22;4.47;;;16.30;99.90;;;;;;4864029;29;20044;-86
2022/08/27 02:53:07;;;;;;;6.63;5.75;;;16.40;99.90;;;;;;4857029;29;20052;-85
2022/08/27 02:55:36;;;;;;;8.02;5.90;;;16.40;99.90;;;;;;4865185;29;20060;-85
2022/08/27 02:58:04;;;;;;;9.13;5.68;;;16.40;99.90;;;;;;4864562;29;20088;-85
2022/08/27 03:00:32;;;;;;;6.05;5.25;;;16.40;99.90;;;;;;4864932;29;20060;-85
2022/08/27 03:03:01;;;;;;;5.93;5.30;;;16.30;99.90;;;;;;4864674;29;20573;-84
2022/08/27 03:05:29;;;;;;;9.35;5.35;;;16.40;99.90;;;;;;4849409;29;20052;-85
2022/08/27 03:07:58;;;;;;;8.65;4.30;;;16.40;99.90;;;;;;4849253;29;20060;-85
2022/08/27 03:10:26;;;;;;;9.13;4.70;;;16.40;99.90;;;;;;4864133;29;20060;-85
2022/08/27 03:12:57;;;;;;;15.07;6.25;;;16.30;99.90;;;;;;4849596;29;20068;-85
2022/08/27 03:15:25;;;;;;;8.23;5.35;;;16.30;99.90;;;;;;4864068;29;20138;-85
2022/08/27 03:20:44;;;;;;;7.78;5.15;;;16.30;99.90;;;;;;4878702;29;20491;-85
2022/08/27 03:23:15;;;;;;;9.77;5.93;;;16.30;99.90;;;;;;4826596;29;20049;-85
2022/08/27 03:25:52;;;;;;;6.80;5.38;;;16.30;99.90;;;;;;4863065;29;20044;-85
2022/08/27 03:28:24;;;;;;;8.95;6.57;;;16.40;99.90;;;;;;4864317;29;20521;-85
2022/08/27 03:30:59;;;;;;;6.95;5.10;;;16.40;99.90;;;;;;4848475;29;20055;-85
2022/08/27 03:33:29;;;;;;;7.28;5.18;;;16.40;99.90;;;;;;4847829;29;20376;-85
2022/08/27 03:35:58;;;;;;;5.63;5.13;;;16.40;99.90;;;;;;4862368;29;20079;-85
2022/08/27 03:38:26;;;;;;;5.88;4.85;;;16.40;99.90;;;;;;4845200;29;20060;-85
2022/08/27 03:40:56;;;;;;;6.35;5.82;;;16.40;99.90;;;;;;4864438;29;20079;-85
2022/08/27 03:43:29;;;;;;;8.10;5.35;;;16.50;99.90;;;;;;4848292;29;20853;-85
2022/08/27 03:45:57;;;;;;;6.53;5.22;;;16.50;99.90;;;;;;4863933;29;20071;-85
2022/08/27 03:48:30;;;;;;;8.93;5.68;;;16.50;99.90;;;;;;4863643;29;20399;-85
2022/08/27 03:51:07;;;;;;;5.57;4.68;;;16.60;99.90;;;;;;4844159;29;20059;-85
2022/08/27 03:53:38;;;;;;;6.38;4.07;;;16.50;99.90;;;;;;4826378;29;20503;-85
2022/08/27 03:56:07;;;;;;;7.22;5.97;;;16.50;99.90;;;;;;4827447;29;20503;-85
2022/08/27 03:58:37;;;;;;;9.50;4.32;;;16.50;99.90;;;;;;4840162;29;20055;-85
2022/08/27 04:01:07;;;;;;;5.25;4.85;;;16.60;99.90;;;;;;4878698;29;20052;-85
2022/08/27 04:03:36;;;;;;;5.07;3.80;;;16.50;99.90;;;;;;4848442;29;20083;-86
2022/08/27 04:06:05;;;;;;;7.82;4.20;;;16.50;99.90;;;;;;4847742;29;20044;-85
2022/08/27 04:08:34;;;;;;;4.70;3.45;;;16.50;99.90;;;;;;4857650;29;20056;-86
2022/08/27 04:11:05;;;;;;;10.18;4.60;;;16.50;99.90;;;;;;4854601;29;20398;-85
2022/08/27 04:13:37;;;;;;;8.45;6.20;;;16.50;99.90;;;;;;4847047;29;20040;-85
2022/08/27 04:16:06;;;;;;;6.97;4.75;;;16.50;99.90;;;;;;4845745;29;20061;-85
2022/08/27 04:18:35;;;;;;;6.55;5.95;;;16.50;99.90;;;;;;4843658;29;20041;-85
2022/08/27 04:21:13;;;;;;;7.25;4.78;;;16.50;99.90;;;;;;4840969;29;20061;-85
2022/08/27 04:23:43;;;;;;;5.22;4.60;;;16.50;99.90;;;;;;4861582;29;20071;-85
2022/08/27 04:26:13;;;;;;;6.97;5.32;;;16.50;99.90;;;;;;4861622;29;20056;-85
2022/08/27 04:28:42;;;;;;;18.30;7.60;;;16.50;99.90;;;;;;4862771;29;20395;-85
2022/08/27 04:31:17;;;;;;;6.93;4.75;;;16.50;99.90;;;;;;4849850;29;20041;-85
2022/08/27 04:33:46;;;;;;;5.47;3.65;;;16.50;99.90;;;;;;4846683;29;20046;-84
2022/08/27 04:36:18;;;;;;;5.10;4.07;;;16.50;99.90;;;;;;4840872;29;20582;-84
2022/08/27 04:39:28;;;;;;;5.63;4.78;;;16.50;99.90;;;;;;4824559;29;20407;-85
2022/08/27 04:43:17;;;;;;;14.98;5.65;;;16.70;99.90;;;;;;4751726;29;20869;-85
2022/08/27 04:46:48;;;;;;;17.85;7.90;;;16.50;99.90;;;;;;4819214;29;20049;-85
2022/08/27 04:50:23;;;;;;;8.50;6.55;;;16.50;99.90;;;;;;4750650;29;20043;-85
2022/08/27 04:54:41;;;;;;;14.40;5.18;;;16.50;99.90;;;;;;4752955;30;20070;-85
2022/08/27 04:59:02;;;;;;;12.20;6.40;;;16.40;99.90;;;;;;4755730;30;20426;-85
2022/08/27 05:06:40;;;;;;;14.10;6.28;;;16.60;99.90;;;;;;4792599;29;20042;-86
2022/08/27 05:13:28;;;;;;;7.50;4.65;;;16.40;99.90;;;;;;4782994;29;20061;-85
2022/08/27 05:17:05;;;;;;;7.75;3.67;;;16.60;99.90;;;;;;4777400;29;20073;-85
2022/08/27 05:20:15;;;;;;;6.55;4.32;;;16.70;99.90;;;;;;4782385;29;20055;-86
2022/08/27 05:23:47;;;;;;;6.80;4.65;;;16.70;99.90;;;;;;4789854;29;20050;-85
2022/08/27 05:26:54;;;;;;;7.82;6.07;;;16.80;99.90;;;;;;4766619;29;20050;-85
2022/08/27 05:31:08;;;;;;;6.78;4.38;;;16.70;99.90;;;;;;4810424;29;20062;-85
2022/08/27 05:34:21;;;;;;;5.68;4.65;;;16.90;99.90;;;;;;4809971;29;20069;-86
2022/08/27 05:37:44;;;;;;;9.82;4.82;;;16.80;99.90;;;;;;4731321;30;20043;-85
2022/08/27 05:41:35;;;;;;;5.85;4.30;;;16.80;99.90;;;;;;4706280;30;20423;-86
2022/08/27 05:46:18;;;;;;;;;;;;;;;;;;;;;
2022/08/27 05:49:25;;;;;;;5.07;4.10;;;16.80;99.90;;;;;;4717469;30;20056;-86
2022/08/27 05:52:44;;;;;;;8.48;4.93;;;17.00;99.90;;;;;;4716479;30;20065;-85
2022/08/27 05:56:17;;;;;;;11.40;3.83;;;16.90;99.90;;;;;;4721279;30;20522;-85
2022/08/27 06:02:11;;;;;;;3.42;2.97;;;16.90;99.90;;;;;;4764142;29;20044;-79
2022/08/27 06:04:39;;;;;;;4.75;4.20;;;17.00;99.90;;;;;;4759996;30;20054;-86
2022/08/27 06:07:09;;;;;;;10.88;4.88;;;16.90;99.90;;;;;;4747348;30;20054;-85
2022/08/27 06:09:38;;;;;;;3.92;3.00;;;17.00;99.90;;;;;;4751353;30;20043;-86
2022/08/27 06:12:08;;;;;;;4.95;4.55;;;17.00;99.90;;;;;;4754590;29;20051;-85
2022/08/27 06:14:37;;;;;;;6.32;2.95;;;17.10;99.90;;;;;;4765491;30;20055;-85
2022/08/27 06:17:06;;;;;;;5.10;4.60;;;17.10;99.90;;;;;;4737188;30;20074;-86
2022/08/27 06:19:35;;;;;;;4.30;3.60;;;17.20;99.90;;;;;;4759254;30;20047;-85
2022/08/27 06:22:04;;;;;;;3.67;3.35;;;17.20;99.90;;;;;;4739525;29;20055;-84
2022/08/27 06:24:40;;;;;;;4.72;4.13;;;17.20;99.90;;;;;;4770744;29;20058;-84
2022/08/27 06:27:14;;;;;;;3.83;3.22;;;17.20;99.90;;;;;;4795575;29;20054;-85
2022/08/27 06:29:46;;;;;;;4.18;3.78;;;17.30;99.90;;;;;;4820624;29;20042;-84
2022/08/27 06:32:14;;;;;;;8.40;4.93;;;17.30;99.90;;;;;;4824884;29;20076;-85
2022/08/27 06:34:46;;;;;;;7.18;4.40;;;17.30;99.90;;;;;;4810158;29;20535;-86
2022/08/27 06:37:16;;;;;;;3.58;3.22;;;17.40;99.90;;;;;;4823804;29;20401;-85
2022/08/27 06:39:45;;;;;;;3.97;3.40;;;17.40;99.90;;;;;;4831069;29;20385;-85
2022/08/27 06:42:14;;;;;;;3.25;2.95;;;17.50;99.90;;;;;;4828909;29;20088;-85
2022/08/27 06:44:50;;;;;;;4.18;3.80;;;17.50;99.90;;;;;;4828529;29;20428;-85
2022/08/27 06:47:20;;;;;;;4.20;2.40;;;17.50;99.90;;;;;;4827351;29;20054;-84
2022/08/27 06:49:48;;;;;;;3.78;3.38;;;17.50;99.90;;;;;;4812563;29;20041;-84
2022/08/27 06:52:24;;;;;;;4.18;3.78;;;17.40;99.90;;;;;;4827701;29;20058;-85
2022/08/27 06:54:54;;;;;;;4.38;3.45;;;17.50;99.90;;;;;;4823701;29;20050;-85
2022/08/27 06:57:23;;;;;;;3.25;2.78;;;17.50;99.90;;;;;;4827770;29;20056;-85
2022/08/27 06:59:52;;;;;;;3.83;3.42;;;17.50;99.90;;;;;;4842858;29;20144;-84
2022/08/27 07:02:22;;;;;;;4.65;4.22;;;17.40;99.90;;;;;;4826955;29;20049;-84
2022/08/27 07:04:53;;;;;;;4.22;3.83;;;17.50;99.90;;;;;;4821632;29;20437;-85
2022/08/27 07:07:24;;;;;;;7.03;3.95;;;17.50;99.90;;;;;;4806728;29;20068;-84
2022/08/27 07:10:04;;;;;;;3.67;3.28;;;17.50;99.90;;;;;;4806436;29;20046;-85
2022/08/27 07:12:41;;;;;;;8.80;4.00;;;17.60;99.90;;;;;;4824514;29;20053;-85
2022/08/27 07:15:10;;;;;;;6.72;3.85;;;17.60;99.90;;;;;;4821175;29;20899;-85
2022/08/27 07:17:39;;;;;;;4.70;3.97;;;17.60;99.90;;;;;;4800375;29;20057;-86
2022/08/27 07:20:08;;;;;;;6.78;3.80;;;17.70;99.90;;;;;;4806923;29;20152;-85
2022/08/27 07:22:42;;;;;;;5.28;4.75;;;17.70;99.90;;;;;;4823987;29;20060;-85
2022/08/27 07:25:18;;;;;;;7.45;5.45;;;17.70;99.90;;;;;;4842362;29;20404;-85
2022/08/27 07:27:48;;;;;;;4.40;3.53;;;17.80;99.90;;;;;;4842787;29;20054;-86
2022/08/27 07:30:18;;;;;;;6.32;5.07;;;17.80;99.90;;;;;;4827313;29;20053;-85
2022/08/27 07:32:46;;;;;;;6.47;4.38;;;17.90;99.90;;;;;;4827949;29;20404;-86
2022/08/27 07:35:14;;;;;;;6.72;5.38;;;17.90;99.90;;;;;;4827380;29;20060;-85
2022/08/27 07:37:43;;;;;;;4.95;3.83;;;17.90;99.90;;;;;;4827002;29;20049;-85
2022/08/27 07:40:14;;;;;;;4.32;3.75;;;18.10;99.90;;;;;;4807647;29;20103;-86
2022/08/27 07:45:38;;;;;;;5.68;3.95;;;18.20;99.90;;;;;;4823919;29;20050;-85
2022/08/27 07:48:10;;;;;;;5.97;5.43;;;18.20;99.90;;;;;;4855339;29;20060;-85
2022/08/27 07:50:46;;;;;;;4.90;4.28;;;18.20;99.90;;;;;;4845225;29;20415;-85
2022/08/27 07:53:43;;;;;;;3.90;3.40;;;18.30;99.90;;;;;;4822211;29;20068;-84
2022/08/27 07:56:37;;;;;;;5.57;4.47;;;18.20;99.90;;;;;;4861215;29;20411;-84
2022/08/27 07:59:08;;;;;;;4.45;3.75;;;18.20;99.90;;;;;;4817678;29;20419;-85
2022/08/27 08:01:50;;;;;;;4.80;3.95;;;18.10;99.90;;;;;;4849800;29;20849;-83
2022/08/27 08:04:31;;;;;;;6.53;4.78;;;18.20;99.90;;;;;;4840596;29;20052;-86
2022/08/27 08:07:01;;;;;;;12.15;5.13;;;18.10;99.90;;;;;;4819111;29;20076;-85
2022/08/27 08:09:56;;;;;;;5.70;4.72;;;18.30;99.90;;;;;;4845595;29;20056;-86
2022/08/27 08:12:27;;;;;;;6.72;4.28;;;18.30;99.90;;;;;;4836038;29;20049;-86
2022/08/27 08:17:25;;;;;;;5.82;5.10;;;18.30;99.90;;;;;;4844378;29;20751;-82
2022/08/27 08:20:50;;;;;;;10.95;5.88;;;18.50;99.90;;;;;;4768301;30;20067;-83
2022/08/27 08:24:36;;;;;;;4.85;4.28;;;18.40;99.90;;;;;;4774930;29;20066;-85
2022/08/27 08:27:51;;;;;;;8.05;4.63;;;18.60;99.90;;;;;;4851371;29;20407;-84
2022/08/27 08:30:38;;;;;;;8.35;4.85;;;18.50;99.90;;;;;;4807463;29;20106;-85
2022/08/27 08:33:51;;;;;;;5.53;4.13;;;18.50;99.90;;;;;;4808381;29;20416;-84
2022/08/27 08:36:27;;;;;;;6.03;4.43;;;18.60;99.90;;;;;;4832626;29;20092;-86
2022/08/27 08:49:54;;;;;;;4.88;3.75;;;19.00;99.90;;;;;;4845694;29;20045;-85
2022/08/27 08:53:49;;;;;;;5.82;4.72;;;18.90;99.90;;;;;;4816410;29;20049;-82
2022/08/27 08:57:01;;;;;;;4.47;3.67;;;18.90;99.90;;;;;;4817055;29;20053;-82
2022/08/27 09:05:21;;;;;;;4.15;3.47;;;19.30;99.90;;;;;;4834736;29;20053;-85
2022/08/27 09:15:57;;;;;;;5.68;4.88;;;19.50;99.90;;;;;;4873196;29;20074;-85
2022/08/27 09:18:59;;;;;;;6.40;4.82;;;19.50;99.90;;;;;;4822474;29;20058;-84
2022/08/27 09:22:52;;;;;;;6.47;5.13;;;19.60;99.90;;;;;;4835775;29;20538;-85
2022/08/27 09:25:45;;;;;;;3.75;3.30;;;19.70;99.90;;;;;;4808100;29;20058;-85
2022/08/27 09:33:09;;;;;;;8.32;6.03;;;19.60;99.90;;;;;;4874767;29;20143;-84
2022/08/27 09:36:31;;;;;;;4.88;4.38;;;19.70;99.90;;;;;;4859541;29;20156;-84
2022/08/27 09:40:53;;;;;;;;;;;;;;;;;;;;;
2022/08/27 09:44:24;;;;;;;6.15;5.63;;;19.60;99.90;;;;;;4789858;29;20050;-85
2022/08/27 09:47:53;;;;;;;6.10;4.85;;;19.70;99.90;;;;;;4816993;29;20062;-84
2022/08/27 09:51:46;;;;;;;5.32;4.75;;;19.80;99.90;;;;;;4826260;29;20049;-84
2022/08/27 10:13:43;;;;;;;6.85;4.72;;;20.40;99.90;;;;;;4787717;29;20066;-84
2022/08/27 10:16:56;;;;;;;5.05;4.20;;;20.60;99.90;;;;;;4774138;30;20059;-82
2022/08/27 10:20:00;;;;;;;5.15;4.28;;;20.60;99.90;;;;;;4851363;29;20057;-82
2022/08/27 10:39:26;;;;;;;;;;;;;;;;;;;;;
2022/08/27 10:44:16;;;;;;;5.47;5.00;;;20.70;99.90;;;;;;4783651;29;20047;-83
2022/08/27 10:48:23;;;;;;;5.85;4.68;;;21.00;99.90;;;;;;4777238;29;20098;-84
2022/08/27 10:51:09;;;;;;;6.90;4.05;;;21.10;99.90;;;;;;4812400;29;20045;-84
2022/08/27 10:54:01;;;;;;;6.68;3.92;;;21.10;99.90;;;;;;4838525;29;20053;-86
2022/08/27 10:57:33;;;;;;;5.43;4.35;;;21.20;99.90;;;;;;4826777;29;20518;-84
2022/08/27 11:01:31;;;;;;;6.63;3.92;;;21.20;99.90;;;;;;4826583;29;20072;-85
2022/08/27 11:04:17;;;;;;;4.57;4.18;;;21.00;99.90;;;;;;4815520;29;20050;-83
2022/08/27 11:07:43;;;;;;;10.23;5.13;;;20.90;99.90;;;;;;4804394;29;20046;-85
2022/08/27 11:11:10;;;;;;;6.55;5.30;;;20.90;99.90;;;;;;4826820;29;20057;-85
2022/08/27 11:14:40;;;;;;;6.00;3.45;;;20.90;99.90;;;;;;4856614;29;20414;-84
2022/08/27 11:17:30;;;;;;;5.55;3.63;;;21.00;99.90;;;;;;4832904;29;20060;-84
2022/08/27 11:20:31;;;;;;;4.30;3.58;;;21.10;99.90;;;;;;4861737;29;20082;-83
2022/08/27 11:23:23;;;;;;;3.95;3.60;;;21.20;99.90;;;;;;4846338;29;20049;-84
2022/08/27 11:25:59;;;;;;;5.78;3.72;;;21.20;99.90;;;;;;4863491;29;20056;-84
2022/08/27 11:28:52;;;;;;;4.43;4.03;;;21.30;99.90;;;;;;4859321;29;20053;-83
2022/08/27 11:31:28;;;;;;;5.88;4.43;;;21.40;99.90;;;;;;4847358;29;20057;-85
2022/08/27 11:34:29;;;;;;;5.82;4.15;;;21.40;99.90;;;;;;4865517;29;20493;-86
2022/08/27 11:38:19;;;;;;;5.78;4.20;;;21.40;99.90;;;;;;4860041;29;20077;-86
2022/08/27 11:41:24;;;;;;;5.25;4.60;;;21.50;99.90;;;;;;4855546;29;20057;-86
2022/08/27 11:43:53;;;;;;;5.90;4.57;;;21.30;99.90;;;;;;4851022;29;20053;-84
2022/08/27 11:46:24;;;;;;;6.05;4.82;;;21.10;99.90;;;;;;4837055;29;20045;-82
2022/08/27 11:48:58;;;;;;;5.40;4.85;;;21.00;99.90;;;;;;4867410;29;20424;-81
2022/08/27 11:51:36;;;;;;;5.47;4.95;;;20.90;99.90;;;;;;4887513;29;20052;-81
2022/08/27 11:54:08;;;;;;;4.80;4.05;;;20.90;99.90;;;;;;4881100;29;20052;-83
2022/08/27 11:56:42;;;;;;;7.40;4.30;;;20.90;99.90;;;;;;4871050;29;20057;-83
2022/08/27 11:59:21;;;;;;;9.55;4.47;;;20.90;99.90;;;;;;4889051;29;20067;-83
2022/08/27 12:01:54;;;;;;;5.18;3.72;;;20.90;99.90;;;;;;4859902;29;20049;-82
2022/08/27 12:04:24;;;;;;;5.22;4.78;;;20.80;99.90;;;;;;4877350;29;20069;-80
2022/08/27 12:07:29;;;;;;;4.50;4.10;;;20.80;99.90;;;;;;4852098;29;20483;-82
2022/08/27 12:10:20;;;;;;;7.28;4.85;;;20.70;99.90;;;;;;4841683;29;20053;-81
2022/08/27 12:13:13;;;;;;;5.15;4.55;;;20.70;99.90;;;;;;4866819;29;20063;-81
2022/08/27 12:15:59;;;;;;;4.68;4.28;;;20.70;99.90;;;;;;4847041;29;20495;-81
2022/08/27 12:18:44;;;;;;;7.45;4.22;;;20.80;99.90;;;;;;4859426;29;20060;-81
2022/08/27 12:21:40;;;;;;;4.10;3.70;;;20.80;99.90;;;;;;4878341;29;20052;-81
2022/08/27 12:24:37;;;;;;;6.22;4.22;;;20.80;99.90;;;;;;4889280;29;20057;-81
2022/08/27 12:27:37;;;;;;;3.83;3.38;;;20.90;99.90;;;;;;4858258;29;20053;-80
2022/08/27 12:30:21;;;;;;;4.47;3.67;;;21.00;99.90;;;;;;4848036;29;20053;-86
2022/08/27 12:32:51;;;;;;;4.97;4.05;;;21.00;99.90;;;;;;4857225;29;20061;-86
2022/08/27 12:35:39;;;;;;;6.27;4.13;;;21.10;99.90;;;;;;4842094;29;20578;-83
2022/08/27 12:38:29;;;;;;;10.48;3.35;;;21.30;99.90;;;;;;4844620;29;20053;-82
2022/08/27 12:41:02;;;;;;;4.40;3.97;;;21.40;99.90;;;;;;4851199;29;20052;-83
2022/08/27 12:44:07;;;;;;;4.30;3.78;;;21.60;99.90;;;;;;4849512;29;20801;-82
2022/08/27 12:47:07;;;;;;;3.55;3.25;;;21.70;99.90;;;;;;4867520;29;20049;-86
2022/08/27 12:49:56;;;;;;;7.20;4.10;;;21.60;99.90;;;;;;4862312;29;20045;-86
2022/08/27 12:52:44;;;;;;;8.38;4.07;;;21.90;99.90;;;;;;4863336;29;20413;-85
2022/08/27 12:55:26;;;;;;;7.00;3.90;;;22.20;99.90;;;;;;4852229;29;20913;-85
2022/08/27 12:58:41;;;;;;;12.43;4.85;;;22.40;99.90;;;;;;4863786;29;20067;-85
2022/08/27 13:01:48;;;;;;;3.30;3.00;;;22.70;99.90;;;;;;4775846;29;20059;-88
2022/08/27 13:04:24;;;;;;;5.13;3.35;;;22.70;99.90;;;;;;4839988;29;20068;-88
2022/08/27 13:06:59;;;;;;;4.43;3.40;;;22.70;99.90;;;;;;4824229;29;20053;-80
2022/08/27 13:09:49;;;;;;;4.45;3.03;;;22.60;99.90;;;;;;4846165;29;20045;-83
2022/08/27 13:17:16;;;;;;;3.75;2.97;;;22.60;99.90;;;;;;4841705;29;20057;-86
2022/08/27 13:20:28;;;;;;;4.72;3.33;;;22.80;99.90;;;;;;4807228;29;20428;-89
2022/08/27 13:23:26;;;;;;;7.25;4.20;;;22.80;99.90;;;;;;4809889;29;20064;-86
2022/08/27 13:26:28;;;;;;;11.88;4.03;;;22.70;99.90;;;;;;4825974;29;20056;-87
2022/08/27 13:29:28;;;;;;;9.48;4.05;;;23.00;99.90;;;;;;4840587;29;20061;-81
2022/08/27 13:32:41;;;;;;;5.37;3.67;;;22.80;99.90;;;;;;4818207;29;20066;-87
2022/08/27 13:35:23;;;;;;;5.30;2.75;;;22.50;99.90;;;;;;4827002;29;20065;-84
2022/08/27 13:38:02;;;;;;;3.77;3.43;;;22.30;99.90;;;;;;4854797;29;20049;-85
2022/08/27 13:40:50;;;;;;;3.27;2.97;;;22.20;99.90;;;;;;4871636;29;21154;-82
2022/08/27 13:43:30;;;;;;;9.75;4.32;;;22.10;99.90;;;;;;4831486;29;20349;-83
2022/08/27 13:46:01;;;;;;;7.47;3.47;;;22.10;99.90;;;;;;4850968;29;20058;-84
2022/08/27 13:48:29;;;;;;;16.98;4.03;;;21.90;99.90;;;;;;4847468;29;20053;-84
2022/08/27 13:50:57;;;;;;;6.25;4.30;;;21.80;99.90;;;;;;4830229;29;20495;-83
2022/08/27 13:56:24;;;;;;;;;;;21.90;99.90;;;;;;4844720;29;20400;-84
2022/08/27 13:58:52;;;;;;;4.25;3.78;;;21.90;99.90;;;;;;4827367;29;20367;-83
2022/08/27 14:01:29;;;;;;;7.78;3.50;;;22.00;99.90;;;;;;4849750;29;20068;-83
2022/08/27 14:04:02;;;;;;;5.13;3.53;;;22.00;99.90;;;;;;4838518;29;20072;-84
2022/08/27 14:06:44;;;;;;;4.07;3.53;;;22.20;99.90;;;;;;4856762;29;20053;-84
2022/08/27 14:09:16;;;;;;;4.32;2.90;;;22.20;99.90;;;;;;4833529;29;20045;-83
2022/08/27 14:11:52;;;;;;;3.60;3.17;;;22.40;99.90;;;;;;4820667;29;20042;-82
2022/08/27 14:14:34;;;;;;;3.35;2.58;;;22.60;99.90;;;;;;4815627;29;20047;-82
2022/08/27 14:17:04;;;;;;;8.65;3.85;;;22.90;99.90;;;;;;4864591;29;20396;-83
2022/08/27 14:19:34;;;;;;;7.40;5.03;;;23.30;99.90;;;;;;4862171;29;20049;-85
2022/08/27 14:22:11;;;;;;;6.32;3.00;;;23.30;99.90;;;;;;4847718;29;20060;-85
2022/08/27 14:24:39;;;;;;;4.80;4.28;;;23.30;99.90;;;;;;4837299;29;20057;-83
2022/08/27 14:27:13;;;;;;;2.65;2.30;;;23.10;99.90;;;;;;4845205;29;20617;-84
2022/08/27 14:29:41;;;;;;;4.13;2.80;;;23.00;99.90;;;;;;4831479;29;20061;-82
2022/08/27 14:32:11;;;;;;;3.90;2.60;;;22.70;99.90;;;;;;4845984;29;20061;-81
2022/08/27 14:35:02;;;;;;;3.78;2.58;;;22.50;99.90;;;;;;4860931;29;20049;-80
2022/08/27 14:37:40;;;;;;;3.08;2.72;;;22.30;99.90;;;;;;4850868;29;20048;-81
2022/08/27 14:40:17;;;;;;;4.20;2.70;;;22.40;99.90;;;;;;4865656;29;20052;-85
2022/08/27 14:43:19;;;;;;;3.45;3.22;;;22.40;99.90;;;;;;4832742;29;20048;-83
2022/08/27 14:46:46;;;;;;;3.75;2.38;;;22.20;99.90;;;;;;4868245;29;20072;-84
2022/08/27 14:49:26;;;;;;;5.18;3.13;;;22.10;99.90;;;;;;4833190;29;20418;-83
2022/08/27 14:52:25;;;;;;;3.10;2.80;;;22.00;99.90;;;;;;4847644;29;20064;-85
2022/08/27 14:55:08;;;;;;;3.97;3.60;;;21.90;99.90;;;;;;4874633;29;20041;-84
2022/08/27 14:57:54;;;;;;;6.97;3.20;;;22.00;99.90;;;;;;4845958;29;20041;-87
2022/08/27 15:00:32;;;;;;;5.07;3.53;;;22.20;99.90;;;;;;4889912;29;20063;-86
2022/08/27 15:03:04;;;;;;;3.10;2.80;;;22.40;99.90;;;;;;4857879;29;20056;-87
2022/08/27 15:05:40;;;;;;;4.45;4.05;;;22.60;99.90;;;;;;4840629;29;20038;-88
2022/08/27 15:09:01;;;;;;;4.82;3.42;;;22.90;99.90;;;;;;4856380;29;20068;-86
2022/08/27 15:11:35;;;;;;;4.10;3.40;;;23.20;99.90;;;;;;4866142;29;20059;-84
2022/08/27 15:14:36;;;;;;;7.53;3.70;;;23.30;99.90;;;;;;4830478;29;20053;-83
2022/08/27 15:17:05;;;;;;;4.45;4.05;;;23.50;99.90;;;;;;4848941;29;20064;-83
2022/08/27 15:19:53;;;;;;;2.92;2.72;;;23.50;99.90;;;;;;4833114;29;20053;-85
2022/08/27 15:22:23;;;;;;;2.65;2.38;;;23.40;99.90;;;;;;4844138;29;20044;-86
2022/08/27 15:24:57;;;;;;;3.15;2.88;;;23.40;99.90;;;;;;4877586;29;20080;-83
2022/08/27 15:27:34;;;;;;;7.00;3.85;;;23.50;99.90;;;;;;4863228;29;20065;-85
2022/08/27 15:30:14;;;;;;;4.35;2.47;;;23.60;99.90;;;;;;4861709;29;20056;-84
2022/08/27 15:33:05;;;;;;;6.70;4.55;;;23.70;99.90;;;;;;4832471;29;20068;-88
2022/08/27 15:35:33;;;;;;;6.05;2.80;;;23.60;99.90;;;;;;4876835;29;20044;-87
2022/08/27 15:38:04;;;;;;;7.78;3.13;;;23.50;99.90;;;;;;4845201;29;20048;-82
2022/08/27 15:40:35;;;;;;;2.78;2.50;;;23.30;99.90;;;;;;4851024;29;20068;-83
2022/08/27 15:43:46;;;;;;;4.25;3.45;;;23.10;99.90;;;;;;4835792;29;20056;-82
2022/08/27 15:46:17;;;;;;;5.93;4.00;;;22.80;99.90;;;;;;4845792;29;20045;-81
2022/08/27 15:48:45;;;;;;;3.55;3.25;;;22.60;99.90;;;;;;4864675;29;20049;-83
2022/08/27 15:51:13;;;;;;;3.75;2.80;;;22.50;99.90;;;;;;4848025;29;20079;-81
2022/08/27 15:53:42;;;;;;;4.82;2.90;;;22.40;99.90;;;;;;4848141;29;20061;-82
2022/08/27 15:56:25;;;;;;;6.68;2.90;;;22.30;99.90;;;;;;4843192;29;20057;-86
2022/08/27 15:59:01;;;;;;;12.27;4.10;;;22.10;99.90;;;;;;4828973;29;20056;-82